Time;durP1;ratioP1;P1;durP2;ratioP2;P2;SDS_P1;SDS_P2;PMS_P1;PMS_P2;Temp;Humidity;BMP_temperature;BMP_pressure;BME280_temperature;BME280_humidity;BME280_pressure;Samples;Min_cycle;Max_cycle;Signal;HPM_P1;HPM_P2
2023/04/06 00:00:48;;;;;;;8.98;7.90;;;;;;;5.60;97.63;97918.53;5054495;28;20185;-60
2023/04/06 00:03:14;;;;;;;8.32;7.53;;;;;;;5.34;95.65;97888.41;5054547;28;20170;-60
2023/04/06 00:05:40;;;;;;;8.30;7.40;;;;;;;5.53;94.85;97904.41;5054416;28;20204;-60
2023/04/06 00:08:05;;;;;;;8.20;7.40;;;;;;;5.17;90.98;97806.47;5054436;28;20178;-60
2023/04/06 00:10:31;;;;;;;8.38;7.50;;;;;;;4.98;92.95;97816.09;5054145;28;20328;-60
2023/04/06 00:12:58;;;;;;;7.95;7.15;;;;;;;5.33;93.70;97881.63;5054397;28;20652;-60
2023/04/06 00:15:23;;;;;;;9.57;7.80;;;;;;;4.90;94.89;97802.06;5054579;28;20177;-60
2023/04/06 00:17:49;;;;;;;9.05;7.85;;;;;;;5.43;96.21;97887.88;5054288;28;20311;-60
2023/04/06 00:20:15;;;;;;;14.18;8.13;;;;;;;5.05;98.45;97872.97;5054228;28;20182;-60
2023/04/06 00:22:43;;;;;;;8.57;7.65;;;;;;;5.28;99.04;97883.63;5054098;28;20201;-60
2023/04/06 00:25:10;;;;;;;9.85;8.18;;;;;;;5.45;96.64;97868.09;5054183;28;20182;-59
2023/04/06 00:27:35;;;;;;;9.38;8.43;;;;;;;5.52;91.17;97842.91;5054028;28;20189;-60
2023/04/06 00:30:02;;;;;;;9.40;8.27;;;;;;;5.50;89.47;97834.47;5054018;28;20182;-60
2023/04/06 00:32:28;;;;;;;7.78;7.00;;;;;;;5.92;86.28;97879.06;5053998;28;20174;-60
2023/04/06 00:34:53;;;;;;;8.02;7.30;;;;;;;5.47;86.49;97832.09;5053953;28;20725;-60
2023/04/06 00:37:19;;;;;;;7.97;7.18;;;;;;;5.66;88.93;97884.00;5053944;28;20178;-60
2023/04/06 00:39:45;;;;;;;10.23;7.80;;;;;;;5.20;94.30;97880.63;5053884;28;20608;-60
2023/04/06 00:42:14;;;;;;;7.70;7.00;;;;;;;5.31;94.18;97888.56;5053731;28;20236;-60
2023/04/06 00:44:42;;;;;;;8.27;7.57;;;;;;;5.33;94.58;97873.09;5053649;28;20209;-60
2023/04/06 00:47:08;;;;;;;8.40;7.55;;;;;;;5.20;95.40;97882.38;5053667;28;20174;-60
2023/04/06 00:49:34;;;;;;;10.55;8.68;;;;;;;4.68;95.27;97787.06;5053671;28;20294;-60
2023/04/06 00:52:01;;;;;;;9.98;8.00;;;;;;;5.28;93.28;97878.47;5053907;28;20276;-60
2023/04/06 00:54:27;;;;;;;8.88;7.97;;;;;;;4.63;96.16;97808.69;5053544;28;20209;-60
2023/04/06 00:56:52;;;;;;;9.93;8.35;;;;;;;4.97;94.49;97846.94;5053504;28;20268;-60
2023/04/06 00:59:18;;;;;;;8.10;7.30;;;;;;;4.73;88.76;97785.03;5053556;28;20261;-60
2023/04/06 01:01:43;;;;;;;8.32;7.38;;;;;;;4.71;89.76;97783.47;5053452;28;20296;-60
2023/04/06 01:04:09;;;;;;;9.05;7.40;;;;;;;4.73;91.99;97831.16;5053724;28;20664;-60
2023/04/06 01:06:34;;;;;;;8.05;7.30;;;;;;;4.79;92.58;97823.13;5053335;28;20174;-60
2023/04/06 01:09:00;;;;;;;8.23;7.25;;;;;;;4.71;94.13;97807.38;5053598;28;20232;-59
2023/04/06 01:11:26;;;;;;;8.75;7.38;;;;;;;4.69;92.38;97775.88;5053238;28;20181;-59
2023/04/06 01:13:51;;;;;;;8.75;7.57;;;;;;;5.19;90.96;97843.09;5053197;28;20177;-59
2023/04/06 01:16:17;;;;;;;7.43;6.72;;;;;;;4.64;92.05;97793.25;5053172;28;20193;-60
2023/04/06 01:18:43;;;;;;;8.27;7.38;;;;;;;4.65;93.97;97811.97;5053141;28;20173;-60
2023/04/06 01:21:15;;;;;;;8.02;7.22;;;;;;;4.96;95.35;97866.59;5052937;28;20223;-60
2023/04/06 01:23:42;;;;;;;9.05;7.10;;;;;;;4.31;98.29;97830.91;5052953;28;20219;-60
2023/04/06 01:26:07;;;;;;;8.13;7.25;;;;;;;4.44;96.53;97846.47;5053304;28;20598;-60
2023/04/06 01:28:33;;;;;;;8.52;7.70;;;;;;;4.60;90.58;97825.06;5052965;28;20307;-60
2023/04/06 01:30:58;;;;;;;7.57;6.88;;;;;;;5.03;88.09;97857.69;5052909;28;20178;-60
2023/04/06 01:33:24;;;;;;;8.48;7.68;;;;;;;4.59;86.41;97772.16;5052827;28;20196;-60
2023/04/06 01:35:49;;;;;;;7.95;7.15;;;;;;;5.18;86.02;97861.94;5052781;28;20644;-60
2023/04/06 01:38:15;;;;;;;7.88;6.95;;;;;;;5.01;84.54;97833.84;5052457;28;20555;-60
2023/04/06 01:40:40;;;;;;;7.93;7.13;;;;;;;4.71;88.50;97850.91;5052118;28;20182;-59
2023/04/06 01:43:06;;;;;;;7.45;6.85;;;;;;;3.93;92.01;97780.06;5052600;28;20193;-59
2023/04/06 01:45:31;;;;;;;9.82;8.30;;;;;;;3.68;97.00;97803.53;5052349;28;20174;-59
2023/04/06 01:47:57;;;;;;;8.38;7.47;;;;;;;3.60;98.35;97805.66;5052581;28;20184;-60
2023/04/06 01:50:22;;;;;;;8.40;7.47;;;;;;;3.40;99.98;97805.84;5052489;28;20247;-60
2023/04/06 01:52:48;;;;;;;8.82;7.93;;;;;;;3.13;100.00;97825.06;5052401;28;20182;-59
2023/04/06 01:55:13;;;;;;;10.55;8.73;;;;;;;2.71;100.00;97796.47;5052449;28;20173;-60
2023/04/06 01:57:39;;;;;;;9.23;8.20;;;;;;;2.53;100.00;97764.13;5052375;28;20644;-60
2023/04/06 02:00:05;;;;;;;8.90;8.00;;;;;;;2.97;100.00;97836.91;5052379;28;20384;-59
2023/04/06 02:02:30;;;;;;;9.55;8.15;;;;;;;2.98;100.00;97825.78;5052244;28;20705;-59
2023/04/06 02:04:56;;;;;;;11.77;9.55;;;;;;;3.35;100.00;97850.41;5052297;28;20169;-59
2023/04/06 02:07:21;;;;;;;10.05;8.50;;;;;;;2.61;100.00;97759.50;5052245;28;20256;-60
2023/04/06 02:09:47;;;;;;;10.43;8.25;;;;;;;3.12;100.00;97815.75;5052191;28;20175;-60
2023/04/06 02:12:12;;;;;;;10.25;8.57;;;;;;;3.14;100.00;97806.28;5052206;28;20216;-59
2023/04/06 02:14:37;;;;;;;12.75;8.88;;;;;;;2.88;100.00;97782.88;5052088;28;20180;-59
2023/04/06 02:17:03;;;;;;;10.43;8.82;;;;;;;3.51;100.00;97857.25;5052074;28;20636;-59
2023/04/06 02:19:28;;;;;;;9.98;8.70;;;;;;;3.54;100.00;97846.88;5052068;28;20178;-59
2023/04/06 02:21:54;;;;;;;9.68;8.68;;;;;;;3.13;100.00;97771.41;5051930;28;20255;-59
2023/04/06 02:24:19;;;;;;;10.05;8.65;;;;;;;3.42;100.00;97816.81;5051974;28;20200;-59
2023/04/06 02:26:45;;;;;;;10.63;8.98;;;;;;;3.35;100.00;97794.16;5051893;28;20687;-59
2023/04/06 02:29:10;;;;;;;10.13;8.82;;;;;;;3.46;100.00;97813.19;5051932;28;20292;-59
2023/04/06 02:31:36;;;;;;;8.98;8.07;;;;;;;3.35;100.00;97827.41;5051844;28;20174;-59
2023/04/06 02:34:01;;;;;;;11.63;8.68;;;;;;;3.21;100.00;97787.16;5051887;28;20562;-60
2023/04/06 02:36:26;;;;;;;10.13;8.30;;;;;;;3.61;100.00;97837.19;5049181;28;20583;-60
2023/04/06 02:38:52;;;;;;;9.18;8.27;;;;;;;3.09;100.00;97771.63;5049358;28;20574;-60
2023/04/06 02:41:17;;;;;;;11.80;9.20;;;;;;;3.75;100.00;97852.66;5049241;28;20236;-60
2023/04/06 02:43:43;;;;;;;9.77;8.77;;;;;;;3.27;100.00;97761.31;5049299;28;20184;-60
2023/04/06 02:46:08;;;;;;;9.43;8.50;;;;;;;3.85;100.00;97818.84;5049342;28;20201;-61
2023/04/06 02:48:36;;;;;;;10.18;8.88;;;;;;;4.04;100.00;97842.59;5049284;28;20182;-60
2023/04/06 02:51:01;;;;;;;9.85;8.57;;;;;;;3.74;100.00;97792.97;5049153;28;20189;-60
2023/04/06 02:53:27;;;;;;;9.85;8.65;;;;;;;3.55;100.00;97807.59;5051473;28;20182;-60
2023/04/06 02:55:53;;;;;;;9.48;8.27;;;;;;;3.08;100.00;97775.06;5053462;28;20182;-60
2023/04/06 02:58:18;;;;;;;11.25;9.50;;;;;;;3.19;100.00;97813.72;5053269;28;20233;-60
2023/04/06 03:00:44;;;;;;;11.18;8.30;;;;;;;3.04;100.00;97759.06;5053408;28;20699;-60
2023/04/06 03:03:09;;;;;;;10.35;9.00;;;;;;;3.58;100.00;97838.16;5053294;28;20636;-59
2023/04/06 03:05:35;;;;;;;11.88;10.27;;;;;;;3.27;100.00;97763.88;5053367;28;20173;-60
2023/04/06 03:08:00;;;;;;;9.05;8.15;;;;;;;4.04;100.00;97846.88;5054843;28;20193;-59
2023/04/06 03:10:25;;;;;;;9.23;8.13;;;;;;;4.16;100.00;97857.31;5055669;28;20169;-59
2023/04/06 03:12:51;;;;;;;11.15;9.00;;;;;;;4.29;100.00;97853.22;5055611;28;20178;-59
2023/04/06 03:15:16;;;;;;;9.75;8.23;;;;;;;3.75;100.00;97763.97;5055557;28;20172;-60
2023/04/06 03:17:42;;;;;;;10.48;7.88;;;;;;;4.32;100.00;97860.72;5055524;28;20644;-60
2023/04/06 03:20:08;;;;;;;14.13;8.85;;;;;;;4.25;100.00;97838.91;5052868;28;20190;-60
2023/04/06 03:22:33;;;;;;;10.07;9.07;;;;;;;4.00;100.00;97784.78;5052948;28;20302;-60
2023/04/06 03:24:58;;;;;;;9.93;8.70;;;;;;;4.18;100.00;97804.31;5053019;28;20264;-60
2023/04/06 03:27:24;;;;;;;10.98;9.35;;;;;;;4.18;100.00;97798.34;5053119;28;20289;-60
2023/04/06 03:29:49;;;;;;;9.98;8.68;;;;;;;4.64;100.00;97849.59;5052856;28;20177;-59
2023/04/06 03:32:15;;;;;;;10.57;9.48;;;;;;;4.81;100.00;97857.22;5052902;28;20239;-60
2023/04/06 03:34:40;;;;;;;8.88;7.35;;;;;;;4.97;94.20;97858.03;5052884;28;20186;-60
2023/04/06 03:37:05;;;;;;;10.02;8.20;;;;;;;4.68;87.75;97804.97;5052806;28;20178;-59
2023/04/06 03:39:31;;;;;;;7.53;6.70;;;;;;;4.72;86.47;97778.25;5052786;28;20190;-59
2023/04/06 03:41:57;;;;;;;6.68;5.93;;;;;;;4.81;79.40;97784.63;5052596;28;20213;-59
2023/04/06 03:44:22;;;;;;;7.10;6.43;;;;;;;5.17;78.71;97824.41;5052953;28;20182;-59
2023/04/06 03:46:47;;;;;;;8.02;6.80;;;;;;;4.96;78.73;97788.91;5052493;28;20297;-59
2023/04/06 03:49:13;;;;;;;7.60;6.38;;;;;;;5.31;76.78;97836.47;5052599;28;20193;-59
2023/04/06 03:51:38;;;;;;;7.32;6.25;;;;;;;5.06;75.25;97784.88;5054022;28;20284;-60
2023/04/06 03:54:04;;;;;;;6.60;5.93;;;;;;;5.50;74.06;97872.97;5054917;28;20170;-60
2023/04/06 03:56:29;;;;;;;7.65;6.35;;;;;;;4.80;75.08;97776.13;5054702;28;20178;-60
2023/04/06 03:58:55;;;;;;;7.95;7.10;;;;;;;5.10;75.27;97827.41;5054846;28;20670;-60
2023/04/06 04:01:20;;;;;;;7.60;6.13;;;;;;;5.06;75.86;97815.66;5054658;28;20609;-60
2023/04/06 04:03:46;;;;;;;6.70;6.10;;;;;;;5.21;73.75;97851.53;5071687;28;20725;-60
2023/04/06 04:06:11;;;;;;;11.43;6.25;;;;;;;5.00;75.39;97829.66;5072199;28;20259;-60
2023/04/06 04:08:37;;;;;;;6.10;5.53;;;;;;;4.96;73.94;97817.91;5072196;28;20181;-60
2023/04/06 04:11:02;;;;;;;7.00;6.30;;;;;;;5.07;73.13;97830.94;5072181;28;20691;-60
2023/04/06 04:13:27;;;;;;;8.35;6.50;;;;;;;5.10;73.90;97830.78;5072171;28;20181;-60
2023/04/06 04:15:53;;;;;;;6.25;5.65;;;;;;;4.78;73.11;97785.59;5072084;28;20178;-60
2023/04/06 04:18:19;;;;;;;6.38;5.78;;;;;;;5.10;73.45;97837.66;5072081;28;20553;-60
2023/04/06 04:20:44;;;;;;;6.78;5.72;;;;;;;4.76;73.72;97784.88;5071998;28;20178;-60
2023/04/06 04:23:10;;;;;;;6.85;6.15;;;;;;;4.78;73.70;97793.28;5071847;28;20324;-60
2023/04/06 04:25:35;;;;;;;6.03;5.43;;;;;;;5.27;73.28;97876.00;5072121;28;20181;-60
2023/04/06 04:28:01;;;;;;;6.60;6.00;;;;;;;5.11;73.39;97865.78;5071769;28;20260;-60
2023/04/06 04:30:26;;;;;;;7.40;6.53;;;;;;;4.72;73.79;97809.00;5071703;28;20318;-60
2023/04/06 04:32:51;;;;;;;7.63;6.47;;;;;;;4.77;73.54;97804.47;5071914;28;20276;-60
2023/04/06 04:35:17;;;;;;;6.53;5.80;;;;;;;4.98;72.50;97834.03;5058563;28;20284;-59
2023/04/06 04:37:42;;;;;;;6.70;5.93;;;;;;;4.61;73.12;97783.16;5053947;28;20597;-59
2023/04/06 04:40:08;;;;;;;8.88;6.68;;;;;;;4.99;73.11;97829.72;5053914;28;20261;-59
2023/04/06 04:42:34;;;;;;;8.05;6.20;;;;;;;5.17;73.00;97865.44;5053837;28;20304;-60
2023/04/06 04:44:59;;;;;;;6.00;5.40;;;;;;;5.08;71.68;97854.88;5053799;28;20228;-60
2023/04/06 04:47:25;;;;;;;6.70;6.00;;;;;;;4.68;72.47;97783.66;5053476;28;20174;-59
2023/04/06 04:49:50;;;;;;;6.20;5.60;;;;;;;4.53;72.76;97780.19;5053741;28;20177;-59
2023/04/06 04:52:16;;;;;;;7.25;6.57;;;;;;;4.75;73.28;97813.97;5053192;28;20265;-60
2023/04/06 04:54:41;;;;;;;7.40;6.05;;;;;;;5.10;73.24;97888.91;5053409;28;20177;-60
2023/04/06 04:57:07;;;;;;;7.93;6.45;;;;;;;5.07;73.06;97882.22;5053187;28;20272;-59
2023/04/06 04:59:33;;;;;;;7.20;6.50;;;;;;;4.52;73.47;97783.66;5052986;28;20268;-59
2023/04/06 05:01:59;;;;;;;7.53;6.72;;;;;;;4.86;73.75;97839.00;5052827;28;20194;-59
2023/04/06 05:04:24;;;;;;;6.57;5.90;;;;;;;5.12;73.49;97866.63;5053174;28;20234;-59
2023/04/06 05:06:50;;;;;;;6.88;6.13;;;;;;;5.15;73.37;97861.31;5053194;28;20287;-58
2023/04/06 05:09:15;;;;;;;6.78;6.18;;;;;;;5.26;73.64;97866.66;5053275;28;20185;-59
2023/04/06 05:11:41;;;;;;;8.43;7.25;;;;;;;4.83;74.47;97788.75;5053334;28;20368;-59
2023/04/06 05:14:06;;;;;;;6.53;5.93;;;;;;;5.41;73.16;97858.09;5053225;28;20185;-59
2023/04/06 05:16:33;;;;;;;7.20;6.40;;;;;;;5.28;73.41;97823.78;5052233;28;20173;-59
2023/04/06 05:18:59;;;;;;;6.65;6.05;;;;;;;5.12;72.33;97764.06;5053276;28;20170;-58
2023/04/06 05:21:26;;;;;;;6.70;6.20;;;;;;;5.56;71.46;97834.97;5052506;28;20684;-59
2023/04/06 05:23:51;;;;;;;6.60;6.00;;;;;;;5.37;70.82;97777.91;5052749;28;20182;-58
2023/04/06 05:26:16;;;;;;;8.18;6.35;;;;;;;5.91;70.80;97862.00;5053249;28;20640;-58
2023/04/06 05:28:44;;;;;;;9.32;6.65;;;;;;;5.51;70.76;97760.00;5052974;28;20181;-60
2023/04/06 05:31:09;;;;;;;7.28;6.45;;;;;;;5.80;70.30;97787.38;5052864;28;20664;-60
2023/04/06 05:33:35;;;;;;;8.55;7.13;;;;;;;6.07;68.92;97810.56;5052800;28;20185;-60
2023/04/06 05:36:00;;;;;;;7.93;6.47;;;;;;;6.17;69.24;97798.84;5052672;28;20170;-60
2023/04/06 05:38:26;;;;;;;9.00;6.97;;;;;;;6.27;70.54;97813.59;5052863;28;20184;-59
2023/04/06 05:40:51;;;;;;;6.30;5.70;;;;;;;6.55;68.29;97823.00;5052722;28;20182;-59
2023/04/06 05:43:17;;;;;;;8.85;7.03;;;;;;;6.44;68.57;97790.25;5052331;28;20296;-59
2023/04/06 05:45:44;;;;;;;7.80;6.97;;;;;;;6.51;71.10;97788.94;5052951;28;20180;-59
2023/04/06 05:48:10;;;;;;;7.85;7.05;;;;;;;6.79;72.38;97821.47;5052596;28;20189;-59
2023/04/06 05:50:35;;;;;;;6.57;5.97;;;;;;;6.15;74.66;97764.69;5052768;28;20181;-59
2023/04/06 05:53:01;;;;;;;8.82;7.22;;;;;;;6.16;75.19;97766.34;5052413;28;20184;-59
2023/04/06 05:55:27;;;;;;;7.93;7.13;;;;;;;6.42;75.28;97768.94;5052151;28;20247;-59
2023/04/06 05:57:53;;;;;;;7.68;6.85;;;;;;;6.49;75.05;97774.53;5052450;28;20721;-59
2023/04/06 06:00:19;;;;;;;10.93;6.93;;;;;;;6.49;75.12;97769.41;5052446;28;20178;-59
2023/04/06 06:02:44;;;;;;;7.70;7.00;;;;;;;6.74;75.87;97811.47;5052322;28;20653;-59
2023/04/06 06:05:10;;;;;;;8.75;6.78;;;;;;;6.56;77.73;97806.66;5052320;28;20264;-59
2023/04/06 06:07:37;;;;;;;7.82;7.05;;;;;;;6.24;78.16;97770.09;5051822;28;20224;-59
2023/04/06 06:10:03;;;;;;;7.68;6.88;;;;;;;6.05;78.46;97749.03;5051885;28;20269;-59
2023/04/06 06:12:28;;;;;;;8.90;6.63;;;;;;;6.28;79.34;97765.59;5051969;28;20181;-59
2023/04/06 06:14:55;;;;;;;8.48;6.80;;;;;;;6.30;79.75;97743.22;5052228;28;20178;-59
2023/04/06 06:17:20;;;;;;;9.50;6.70;;;;;;;6.32;81.91;97746.50;5051840;28;20177;-59
2023/04/06 06:19:46;;;;;;;6.82;6.22;;;;;;;6.38;81.68;97723.84;5052044;28;20178;-59
2023/04/06 06:22:11;;;;;;;6.68;6.00;;;;;;;6.51;82.09;97722.13;5051228;28;20284;-59
2023/04/06 06:24:36;;;;;;;7.05;5.72;;;;;;;6.70;82.35;97758.59;5051950;28;20276;-59
2023/04/06 06:27:02;;;;;;;6.95;6.25;;;;;;;6.72;82.52;97725.09;5049374;28;20276;-59
2023/04/06 06:29:27;;;;;;;6.50;5.88;;;;;;;7.37;81.77;97809.09;5049885;28;20217;-59
2023/04/06 06:31:53;;;;;;;6.13;5.60;;;;;;;6.94;80.79;97728.75;5049635;28;20195;-59
2023/04/06 06:34:18;;;;;;;6.05;5.32;;;;;;;7.22;80.81;97756.88;5049571;28;20180;-59
2023/04/06 06:36:44;;;;;;;6.40;5.80;;;;;;;7.78;80.72;97827.78;5049517;28;20185;-59
2023/04/06 06:39:09;;;;;;;6.05;5.55;;;;;;;7.84;75.96;97794.75;5049477;28;20177;-59
2023/04/06 06:41:35;;;;;;;7.15;6.45;;;;;;;7.86;70.23;97780.00;5049258;28;20212;-59
2023/04/06 06:44:01;;;;;;;6.50;5.97;;;;;;;7.83;66.86;97744.16;5049484;28;20185;-59
2023/04/06 06:46:26;;;;;;;6.28;5.65;;;;;;;8.47;65.16;97823.03;5049431;28;20216;-59
2023/04/06 06:48:52;;;;;;;6.53;6.00;;;;;;;8.61;64.76;97826.31;5049407;28;20185;-59
2023/04/06 06:51:17;;;;;;;6.60;5.90;;;;;;;8.29;62.61;97747.84;5049321;28;20173;-59
2023/04/06 06:53:43;;;;;;;6.60;6.00;;;;;;;8.83;62.42;97820.47;5049329;28;20382;-59
2023/04/06 06:56:08;;;;;;;6.82;6.13;;;;;;;8.84;62.59;97807.47;5049347;28;20178;-59
2023/04/06 06:58:33;;;;;;;6.70;6.10;;;;;;;8.54;62.32;97763.22;5050465;28;20256;-59
2023/04/06 07:00:59;;;;;;;6.13;5.40;;;;;;;8.72;61.58;97761.91;5051726;28;20186;-59
2023/04/06 07:03:25;;;;;;;7.38;6.60;;;;;;;8.89;61.39;97774.41;5050660;28;20593;-59
2023/04/06 07:05:53;;;;;;;6.63;5.95;;;;;;;8.92;61.03;97768.22;5050837;28;20168;-60
2023/04/06 07:08:20;;;;;;;6.57;5.90;;;;;;;8.89;60.53;97746.03;5051563;28;20188;-59
2023/04/06 07:10:46;;;;;;;7.05;6.30;;;;;;;9.16;59.19;97800.81;5051598;28;20178;-59
2023/04/06 07:13:12;;;;;;;5.80;5.30;;;;;;;8.48;60.52;97716.41;5050553;28;20185;-59
2023/04/06 07:15:37;;;;;;;6.45;5.65;;;;;;;8.58;61.81;97722.56;5051337;28;20243;-59
2023/04/06 07:18:03;;;;;;;8.13;6.50;;;;;;;8.88;62.34;97757.31;5051437;28;20632;-60
2023/04/06 07:20:28;;;;;;;7.00;6.40;;;;;;;8.67;61.39;97721.91;5051257;28;20583;-59
2023/04/06 07:22:54;;;;;;;5.95;5.35;;;;;;;8.59;59.74;97722.47;5051409;28;20201;-59
2023/04/06 07:25:20;;;;;;;5.88;5.38;;;;;;;8.66;60.56;97730.56;5051191;28;20170;-59
2023/04/06 07:27:45;;;;;;;6.30;5.80;;;;;;;8.86;60.20;97756.56;5050968;28;20178;-59
2023/04/06 07:30:14;;;;;;;3.42;3.15;;;;;;;8.97;55.96;97735.97;5051394;28;20178;-59
2023/04/06 07:32:39;;;;;;;2.53;2.42;;;;;;;9.10;51.94;97715.28;5051120;28;20185;-59
2023/04/06 07:35:05;;;;;;;3.13;2.92;;;;;;;9.23;52.37;97716.84;5051319;28;20557;-59
2023/04/06 07:37:31;;;;;;;3.67;3.28;;;;;;;9.77;52.38;97782.44;5051130;28;20189;-59
2023/04/06 07:39:56;;;;;;;2.63;2.53;;;;;;;9.49;50.69;97744.13;5053925;28;20170;-59
2023/04/06 07:42:21;;;;;;;3.20;3.00;;;;;;;9.60;52.12;97733.81;5054724;28;20218;-59
2023/04/06 07:44:48;;;;;;;3.60;3.40;;;;;;;9.72;51.78;97750.16;5055031;28;20223;-59
2023/04/06 07:47:13;;;;;;;2.92;2.72;;;;;;;10.06;50.61;97796.59;5055000;28;20178;-59
2023/04/06 07:49:39;;;;;;;3.15;2.95;;;;;;;10.18;51.35;97793.06;5054612;28;20199;-59
2023/04/06 07:52:04;;;;;;;3.45;3.25;;;;;;;10.08;50.28;97797.28;5054767;28;20177;-59
2023/04/06 07:54:30;;;;;;;3.60;3.40;;;;;;;9.86;51.46;97748.19;5054874;28;20174;-59
2023/04/06 07:56:55;;;;;;;2.78;2.53;;;;;;;9.63;50.15;97721.47;5054668;28;20190;-59
2023/04/06 07:59:21;;;;;;;2.78;2.60;;;;;;;9.67;50.54;97721.28;5054591;28;20170;-59
2023/04/06 08:01:46;;;;;;;2.53;2.40;;;;;;;10.05;50.55;97763.94;5054508;28;20216;-59
2023/04/06 08:04:11;;;;;;;3.00;2.80;;;;;;;9.63;50.29;97718.91;5054516;28;20166;-59
2023/04/06 08:06:37;;;;;;;2.97;2.78;;;;;;;9.86;49.27;97743.00;5054171;28;20260;-59
2023/04/06 08:09:03;;;;;;;3.10;2.90;;;;;;;10.30;50.11;97813.66;5054599;28;20192;-59
2023/04/06 08:11:29;;;;;;;3.50;3.20;;;;;;;9.89;50.68;97732.41;5031784;28;20205;-59
2023/04/06 08:13:56;;;;;;;3.17;2.88;;;;;;;10.29;49.37;97799.09;5032006;28;20187;-59
2023/04/06 08:16:22;;;;;;;3.35;3.15;;;;;;;9.85;49.67;97731.00;5031901;28;20186;-59
2023/04/06 08:18:47;;;;;;;3.40;3.10;;;;;;;10.28;49.69;97801.78;5031843;28;20706;-59
2023/04/06 08:21:13;;;;;;;3.20;2.90;;;;;;;9.72;50.13;97732.06;5031971;28;20196;-59
2023/04/06 08:23:38;;;;;;;3.50;3.20;;;;;;;10.26;50.52;97796.72;5031920;28;20194;-59
2023/04/06 08:26:04;;;;;;;3.20;3.00;;;;;;;10.07;49.44;97756.88;5031868;28;20191;-59
2023/04/06 08:28:30;;;;;;;3.00;2.80;;;;;;;9.95;49.73;97742.28;5031881;28;20182;-59
2023/04/06 08:30:55;;;;;;;3.28;2.97;;;;;;;9.98;49.39;97727.38;5031609;28;20190;-59
2023/04/06 08:33:20;;;;;;;3.33;3.05;;;;;;;10.53;49.83;97797.19;5031172;28;20381;-59
2023/04/06 08:35:46;;;;;;;3.25;3.05;;;;;;;10.55;48.45;97776.34;5030734;28;20217;-59
2023/04/06 08:38:11;;;;;;;3.50;3.25;;;;;;;10.42;49.56;97754.97;5031375;28;20186;-59
2023/04/06 08:40:38;;;;;;;3.17;2.97;;;;;;;10.41;49.01;97743.00;5031492;28;20186;-59
2023/04/06 08:43:08;;;;;;;3.35;3.15;;;;;;;10.57;49.43;97761.53;5046234;28;20210;-59
2023/04/06 08:45:34;;;;;;;3.28;3.00;;;;;;;10.71;48.49;97761.25;5051278;28;20270;-59
2023/04/06 08:48:01;;;;;;;2.97;2.78;;;;;;;10.44;48.63;97706.56;5051287;28;20192;-59
2023/04/06 08:50:29;;;;;;;2.90;2.70;;;;;;;11.02;49.45;97782.00;5049881;28;20231;-60
2023/04/06 08:52:55;;;;;;;3.72;3.42;;;;;;;10.85;48.67;97729.97;5026754;28;20206;-59
2023/04/06 08:55:22;;;;;;;4.97;3.60;;;;;;;10.82;49.80;97699.97;5030977;28;20193;-59
2023/04/06 08:57:48;;;;;;;3.30;3.08;;;;;;;11.00;49.32;97697.66;5030990;28;20680;-59
2023/04/06 09:00:14;;;;;;;4.40;4.00;;;;;;;11.50;50.22;97769.44;5031023;28;20213;-59
2023/04/06 09:02:42;;;;;;;4.82;4.43;;;;;;;11.54;50.52;97775.97;5030781;28;20298;-59
2023/04/06 09:05:12;;;;;;;3.70;3.50;;;;;;;11.39;48.11;97752.16;5030874;28;20175;-59
2023/04/06 09:07:38;;;;;;;5.35;4.00;;;;;;;11.27;48.53;97732.44;5030792;28;20190;-60
2023/04/06 09:10:05;;;;;;;4.10;3.80;;;;;;;11.14;48.10;97697.34;5030750;28;20320;-59
2023/04/06 09:12:31;;;;;;;4.18;3.75;;;;;;;11.51;48.01;97742.56;5030696;28;20194;-59
2023/04/06 09:14:58;;;;;;;4.07;2.90;;;;;;;11.45;47.90;97727.53;5030716;28;20338;-60
2023/04/06 09:17:26;;;;;;;3.92;3.53;;;;;;;11.47;48.07;97733.41;5030422;28;20190;-59
2023/04/06 09:19:52;;;;;;;4.03;3.72;;;;;;;11.51;48.54;97732.22;5030716;28;20201;-59
2023/04/06 09:22:18;;;;;;;4.00;3.60;;;;;;;11.78;48.45;97768.81;5030772;28;20281;-59
2023/04/06 09:24:50;;;;;;;4.95;3.95;;;;;;;11.52;48.80;97720.91;5049380;28;20576;-59
2023/04/06 09:27:16;;;;;;;5.63;3.85;;;;;;;11.68;49.76;97722.09;5052798;28;20182;-59
2023/04/06 09:29:43;;;;;;;4.13;3.70;;;;;;;11.96;48.55;97751.72;5052967;28;20178;-59
2023/04/06 09:32:10;;;;;;;3.55;3.25;;;;;;;11.81;47.62;97701.16;5052842;28;20182;-59
2023/04/06 09:34:38;;;;;;;4.88;3.90;;;;;;;11.72;46.99;97676.03;5052615;28;20648;-60
2023/04/06 09:37:18;;;;;;;4.53;3.92;;;;;;;12.32;47.35;97761.56;5052798;28;20176;-59
2023/04/06 09:39:44;;;;;;;4.88;4.47;;;;;;;12.15;47.99;97716.34;5052754;28;20659;-59
2023/04/06 09:42:11;;;;;;;5.10;4.60;;;;;;;12.22;48.34;97711.41;5052256;28;20566;-59
2023/04/06 09:44:36;;;;;;;5.75;5.05;;;;;;;12.13;49.62;97670.75;5052585;28;20174;-60
2023/04/06 09:47:07;;;;;;;5.88;5.30;;;;;;;12.72;49.45;97746.78;5052660;28;20176;-59
2023/04/06 09:49:33;;;;;;;4.28;3.97;;;;;;;12.63;47.81;97727.63;5052687;28;20173;-59
2023/04/06 09:52:06;;;;;;;5.13;4.32;;;;;;;12.70;47.41;97753.84;5052221;28;20555;-59
2023/04/06 09:54:32;;;;;;;4.47;4.18;;;;;;;12.32;46.40;97699.31;5052352;28;20235;-60
2023/04/06 09:57:28;;;;;;;4.63;4.22;;;;;;;12.75;47.77;97746.50;5052181;28;20189;-59
2023/04/06 10:00:07;;;;;;;4.10;3.70;;;;;;;12.56;46.30;97681.59;5052077;28;20165;-59
2023/04/06 10:02:45;;;;;;;6.28;4.93;;;;;;;12.47;46.53;97664.22;5029550;28;20222;-59
2023/04/06 10:05:20;;;;;;;5.80;4.75;;;;;;;12.96;45.77;97734.25;5030020;28;20186;-59
2023/04/06 10:07:50;;;;;;;5.63;5.13;;;;;;;12.83;46.06;97702.53;5029708;28;20201;-60
2023/04/06 10:10:16;;;;;;;7.50;5.45;;;;;;;13.04;46.65;97739.59;5029746;28;20295;-60
2023/04/06 10:12:41;;;;;;;6.45;4.95;;;;;;;13.04;45.20;97734.38;5029624;28;20256;-60
2023/04/06 10:15:08;;;;;;;5.13;4.55;;;;;;;12.64;45.27;97656.59;5029837;28;20178;-60
2023/04/06 10:17:33;;;;;;;5.03;4.50;;;;;;;13.00;44.53;97704.47;5029853;28;20322;-60
2023/04/06 10:20:20;;;;;;;4.80;4.35;;;;;;;13.06;45.69;97738.50;5029898;28;20661;-60
2023/04/06 10:23:04;;;;;;;5.10;4.70;;;;;;;12.51;46.01;97644.84;5029564;28;20601;-61
2023/04/06 10:25:32;;;;;;;5.13;4.68;;;;;;;12.60;46.30;97667.41;5029744;28;20189;-60
2023/04/06 10:28:08;;;;;;;4.97;4.47;;;;;;;12.81;46.23;97688.84;5029688;28;20190;-60
2023/04/06 10:30:35;;;;;;;5.47;4.93;;;;;;;13.00;46.75;97725.25;5029741;28;20194;-60
2023/04/06 10:33:00;;;;;;;4.45;3.90;;;;;;;12.83;44.35;97692.16;5035623;28;20186;-60
2023/04/06 10:35:38;;;;;;;4.47;4.07;;;;;;;12.82;45.22;97691.31;5049512;28;20239;-60
2023/04/06 10:38:05;;;;;;;4.57;4.18;;;;;;;13.06;46.17;97706.53;5049445;28;20767;-60
2023/04/06 10:40:33;;;;;;;5.13;4.72;;;;;;;13.33;46.56;97712.66;5049852;28;20190;-61
2023/04/06 10:43:38;;;;;;;6.72;4.82;;;;;;;13.65;45.40;97720.91;5051813;28;20205;-61
2023/04/06 10:46:05;;;;;;;4.25;3.70;;;;;;;13.32;43.73;97642.63;5049298;28;20177;-60
2023/04/06 10:48:40;;;;;;;4.20;3.90;;;;;;;13.93;43.89;97727.00;5049282;28;20193;-60
2023/04/06 10:51:13;;;;;;;4.93;4.53;;;;;;;13.71;43.90;97667.56;5049358;28;20260;-60
2023/04/06 10:53:41;;;;;;;5.07;4.57;;;;;;;13.82;43.70;97677.78;5049346;28;20197;-60
2023/04/06 10:56:13;;;;;;;5.35;4.80;;;;;;;13.93;43.98;97654.19;5029167;28;20566;-60
2023/04/06 10:58:43;;;;;;;5.57;5.00;;;;;;;14.23;43.58;97657.34;5028326;28;20209;-60
2023/04/06 11:01:10;;;;;;;5.88;5.28;;;;;;;14.71;43.50;97703.91;5029435;28;20189;-61
2023/04/06 11:03:43;;;;;;;5.20;4.60;;;;;;;14.33;43.43;97641.66;5029187;28;20218;-61
2023/04/06 11:06:09;;;;;;;5.70;4.97;;;;;;;14.51;42.97;97663.31;5029286;28;20186;-61
2023/04/06 11:08:36;;;;;;;4.15;3.83;;;;;;;14.82;41.50;97699.28;5029273;28;20687;-61
2023/04/06 11:11:15;;;;;;;4.65;4.30;;;;;;;14.91;42.21;97708.81;5029256;28;20191;-61
2023/04/06 11:13:45;;;;;;;4.70;4.30;;;;;;;14.40;41.63;97621.91;5030270;28;20258;-61
2023/04/06 11:16:18;;;;;;;5.05;4.25;;;;;;;14.74;42.05;97695.78;5033365;28;20664;-60
2023/04/06 11:18:56;;;;;;;6.35;5.05;;;;;;;14.78;42.48;97700.56;5033325;28;20182;-61
2023/04/06 11:21:36;;;;;;;6.88;4.38;;;;;;;14.93;42.14;97682.63;5053126;28;20327;-61
2023/04/06 11:24:21;;;;;;;5.53;4.93;;;;;;;14.74;41.93;97618.47;5053021;28;20177;-60
2023/04/06 11:26:56;;;;;;;5.82;5.22;;;;;;;15.38;42.48;97694.59;5053835;28;20186;-59
2023/04/06 11:29:23;;;;;;;5.60;5.10;;;;;;;15.63;41.40;97695.56;5055390;28;20558;-58
2023/04/06 11:31:51;;;;;;;7.45;5.25;;;;;;;15.63;40.25;97666.88;5055299;28;20178;-59
2023/04/06 11:34:22;;;;;;;4.90;4.50;;;;;;;15.61;40.48;97651.38;5055268;28;20185;-59